Terminal Aerodrome Forecast
Issued by NWS Sterling, VA

Home | Current Version | Previous Version | Text Only | Print | Product List | Glossary On
Versions: 1 2 3 4 5 6 7 8 9 10 11 12 13 14 15 16 17 18
000
FTUS41 KLWX 030223 AAC
TAFCHO
TAF AMD
KCHO 030223Z 0302/0324 20005KT 3SM -SHRA OVC050
     FM030900 00000KT 3SM -SHRA OVC060
     FM031200 VRB03KT P6SM -SHRA OVC040
     FM031800 VRB03KT P6SM BKN040=

USA.gov is the U.S. government's official web portal to all federal, state and local government web resources and services.